createdAt,value
2019-05-21T00:00:30.812Z,13.878784
2019-05-21T00:04:00.779Z,13.788147
2019-05-21T00:07:30.746Z,13.747864
2019-05-21T00:11:00.720Z,13.798218
2019-05-21T00:14:30.707Z,13.798218
2019-05-21T00:18:00.695Z,13.747864
2019-05-21T00:21:30.662Z,13.717651
2019-05-21T00:25:00.617Z,13.667297
2019-05-21T00:28:30.585Z,13.677368
2019-05-21T00:32:00.549Z,13.707581
2019-05-21T00:35:31.507Z,13.677368
2019-05-21T00:39:01.588Z,13.596802
2019-05-21T00:42:31.547Z,13.57666
2019-05-21T00:46:01.616Z,13.566589
2019-05-21T00:49:31.598Z,13.546448
2019-05-21T00:53:01.564Z,13.526306
2019-05-21T00:56:31.591Z,13.486023
2019-05-21T01:00:01.581Z,13.536377
2019-05-21T01:03:31.641Z,13.506165
2019-05-21T01:07:01.626Z,13.465881
2019-05-21T01:10:31.643Z,13.506165
2019-05-21T01:14:01.593Z,13.566589
2019-05-21T01:17:31.528Z,13.627014
2019-05-21T01:21:01.483Z,13.647156
2019-05-21T01:24:32.477Z,13.707581
2019-05-21T01:28:02.436Z,13.677368
2019-05-21T01:31:32.384Z,13.677368
2019-05-21T01:35:15.942Z,13.667297
2019-05-21T01:38:37.263Z,13.637085
2019-05-21T01:42:07.226Z,13.566589
2019-05-21T01:45:37.189Z,13.566589
2019-05-21T01:49:07.153Z,13.57666
2019-05-21T01:52:37.124Z,13.637085
2019-05-21T01:56:07.091Z,13.677368
2019-05-21T01:59:37.091Z,13.677368
2019-05-21T02:03:07.038Z,13.717651
2019-05-21T02:06:37.037Z,13.647156
2019-05-21T02:10:07.006Z,13.677368
2019-05-21T02:13:36.995Z,13.747864
2019-05-21T02:17:06.993Z,13.778076
2019-05-21T02:20:36.966Z,13.818359
2019-05-21T02:24:06.971Z,13.788147
2019-05-21T02:27:36.928Z,13.778076
2019-05-21T02:31:06.941Z,13.788147
2019-05-21T02:34:37.054Z,13.798218
2019-05-21T02:38:06.909Z,13.82843
2019-05-21T02:41:36.878Z,13.82843
2019-05-21T02:45:06.874Z,13.858643
2019-05-21T02:48:36.834Z,13.858643
2019-05-21T02:52:08.793Z,13.82843
2019-05-21T02:55:38.791Z,13.818359
2019-05-21T02:59:08.760Z,13.757935
2019-05-21T03:02:38.713Z,13.778076
2019-05-21T03:06:14.104Z,13.778076
2019-05-21T03:09:41.660Z,13.858643
2019-05-21T03:13:11.652Z,13.878784
2019-05-21T03:16:41.692Z,13.878784
2019-05-21T03:20:11.667Z,13.82843
2019-05-21T03:23:41.652Z,13.788147
2019-05-21T03:27:11.637Z,13.898926
2019-05-21T03:30:42.593Z,13.878784
2019-05-21T03:34:12.534Z,13.878784
2019-05-21T03:37:42.528Z,13.939209
2019-05-21T03:41:12.545Z,13.969421
2019-05-21T03:44:58.211Z,13.969421
2019-05-21T03:48:18.390Z,13.969421
2019-05-21T03:51:48.375Z,13.939209
2019-05-21T03:55:19.012Z,13.939209
2019-05-21T03:58:49.014Z,13.969421
2019-05-21T04:02:19.024Z,13.929138
2019-05-21T04:05:50.013Z,13.908997
2019-05-21T04:09:19.979Z,13.848572
2019-05-21T04:12:51.481Z,13.848572
2019-05-21T04:16:24.812Z,13.858643
2019-05-21T04:19:56.496Z,13.82843
2019-05-21T04:23:26.440Z,13.798218
2019-05-21T04:26:56.393Z,13.858643
2019-05-21T04:30:26.363Z,13.858643
2019-05-21T04:33:56.345Z,13.878784
2019-05-21T04:37:26.320Z,13.908997
2019-05-21T04:40:56.315Z,13.929138
2019-05-21T04:44:26.276Z,13.939209
2019-05-21T04:47:56.236Z,13.908997
2019-05-21T04:51:26.668Z,13.757935
2019-05-21T04:54:57.777Z,13.717651
2019-05-21T04:58:27.831Z,13.757935
2019-05-21T05:01:57.784Z,13.82843
2019-05-21T05:05:27.761Z,13.82843
2019-05-21T05:08:57.743Z,13.82843
2019-05-21T05:12:27.731Z,13.878784
2019-05-21T05:15:58.704Z,13.908997
2019-05-21T05:19:30.653Z,13.908997
2019-05-21T05:23:00.666Z,13.969421
2019-05-21T05:26:30.693Z,13.969421
2019-05-21T05:30:00.588Z,14.029846
2019-05-21T05:33:31.552Z,14.029846
2019-05-21T05:37:02.131Z,14.049988
2019-05-21T05:40:32.140Z,14.090271
2019-05-21T05:44:02.183Z,14.090271
2019-05-21T05:47:32.150Z,14.130554
2019-05-21T05:51:02.113Z,14.120483
2019-05-21T05:54:32.158Z,14.160767
2019-05-21T05:58:02.118Z,14.160767
2019-05-21T06:01:32.088Z,14.180908
2019-05-21T06:05:03.122Z,14.150696
2019-05-21T06:08:33.014Z,14.049988
2019-05-21T06:12:03.044Z,14.130554
2019-05-21T06:15:32.958Z,14.190979
2019-05-21T06:19:02.965Z,14.190979
2019-05-21T06:22:32.953Z,14.271545
2019-05-21T06:26:02.906Z,14.301758
2019-05-21T06:29:32.996Z,14.311829
2019-05-21T06:33:05.004Z,14.311829
2019-05-21T06:36:34.970Z,14.33197
2019-05-21T06:40:04.932Z,14.362183
2019-05-21T06:43:34.894Z,14.442749
2019-05-21T06:47:04.866Z,14.523315
2019-05-21T06:50:37.341Z,14.664307
2019-05-21T06:54:05.776Z,14.70459
2019-05-21T06:57:35.735Z,14.815369
2019-05-21T07:01:05.684Z,14.895935
2019-05-21T07:04:35.695Z,14.986572
2019-05-21T07:08:05.654Z,14.916077
2019-05-21T07:11:35.616Z,14.966431
2019-05-21T07:15:05.566Z,15.036926
2019-05-21T07:18:35.536Z,15.117493
2019-05-21T07:22:12.450Z,15.117493
2019-05-21T07:25:40.436Z,15.137634
2019-05-21T07:29:10.429Z,15.036926
2019-05-21T07:32:40.468Z,14.986572
2019-05-21T07:36:10.356Z,15.046997
2019-05-21T07:39:40.324Z,15.077209
2019-05-21T07:43:10.304Z,15.218201
2019-05-21T07:46:40.285Z,15.318909
2019-05-21T07:50:10.233Z,15.480042
2019-05-21T07:53:40.229Z,15.520325
2019-05-21T07:57:10.284Z,15.701599
2019-05-21T08:00:40.233Z,15.872803
2019-05-21T08:04:11.216Z,15.872803
2019-05-21T08:07:41.192Z,15.933228
2019-05-21T08:11:11.378Z,15.872803
2019-05-21T08:14:41.234Z,15.772095
2019-05-21T08:18:11.293Z,15.872803
2019-05-21T08:21:41.197Z,15.852661
2019-05-21T08:25:14.331Z,15.812378
2019-05-21T08:28:43.150Z,15.903015
2019-05-21T08:32:13.142Z,15.96344
2019-05-21T08:35:43.091Z,16.09436
2019-05-21T08:39:27.604Z,16.205139
2019-05-21T08:42:47.976Z,16.21521
2019-05-21T08:46:17.974Z,16.21521
2019-05-21T08:49:48.028Z,16.275635
2019-05-21T08:53:18.023Z,16.285706
2019-05-21T08:56:49.039Z,16.255493
2019-05-21T09:00:18.998Z,16.235352
2019-05-21T09:03:49.938Z,16.205139
2019-05-21T09:07:19.901Z,16.245422
2019-05-21T09:10:49.861Z,16.285706
2019-05-21T09:14:19.817Z,16.33606
2019-05-21T09:17:49.775Z,16.366272
2019-05-21T09:21:19.719Z,16.33606
2019-05-21T09:24:49.683Z,16.396484
2019-05-21T09:28:19.656Z,16.356201
2019-05-21T09:31:49.607Z,16.386414
2019-05-21T09:35:20.576Z,16.386414
2019-05-21T09:38:50.550Z,16.436768
2019-05-21T09:42:20.517Z,16.517334
2019-05-21T09:45:50.458Z,16.416626
2019-05-21T09:49:20.418Z,16.386414
2019-05-21T09:52:50.421Z,16.426697
2019-05-21T09:56:20.497Z,16.487122
2019-05-21T09:59:50.423Z,16.46698
2019-05-21T10:03:20.406Z,16.456909
2019-05-21T10:06:50.379Z,16.416626
2019-05-21T10:10:20.352Z,16.487122
2019-05-21T10:13:50.366Z,16.507263
2019-05-21T10:17:20.314Z,16.607971
2019-05-21T10:20:50.283Z,16.618042
2019-05-21T10:24:20.294Z,16.607971
2019-05-21T10:27:50.254Z,16.618042
2019-05-21T10:31:20.225Z,16.648254
2019-05-21T10:34:50.197Z,16.698608
2019-05-21T10:38:20.177Z,16.698608
2019-05-21T10:41:50.133Z,16.738892
2019-05-21T10:45:20.100Z,16.829529
2019-05-21T10:48:50.098Z,16.920166
2019-05-21T10:52:20.053Z,16.869812
2019-05-21T10:55:50.063Z,16.869812
2019-05-21T10:59:20.023Z,16.879883
2019-05-21T11:02:50.002Z,16.829529
2019-05-21T11:06:20.663Z,16.879883
2019-05-21T11:09:50.633Z,16.940308
2019-05-21T11:13:20.626Z,16.879883
2019-05-21T11:16:50.579Z,16.900024
2019-05-21T11:20:20.600Z,16.869812
2019-05-21T11:23:50.621Z,16.900024
2019-05-21T11:27:20.672Z,16.920166
2019-05-21T11:30:50.699Z,16.97052
2019-05-21T11:34:21.634Z,17.061157
2019-05-21T11:37:52.218Z,17.10144
2019-05-21T11:41:22.186Z,17.131653
2019-05-21T11:44:52.154Z,17.121582
2019-05-21T11:48:22.107Z,17.161865
2019-05-21T11:51:52.138Z,17.141724
2019-05-21T11:55:23.084Z,17.171936
2019-05-21T11:58:53.065Z,17.192078
2019-05-21T12:02:23.030Z,17.252502
2019-05-21T12:05:53.981Z,17.312927
2019-05-21T12:09:24.953Z,17.413635
2019-05-21T12:12:54.938Z,17.494202
2019-05-21T12:16:24.925Z,17.47406
2019-05-21T12:19:54.895Z,17.35321
2019-05-21T12:23:24.850Z,16.950378
2019-05-21T12:26:54.832Z,16.789246
2019-05-21T12:30:24.802Z,16.648254
2019-05-21T12:33:52.774Z,16.638184
2019-05-21T12:37:24.585Z,16.547546
2019-05-21T12:40:54.564Z,16.46698
2019-05-21T12:44:24.534Z,16.507263
2019-05-21T12:47:54.503Z,16.607971
2019-05-21T12:51:24.475Z,16.638184
2019-05-21T12:54:54.464Z,16.618042
2019-05-21T12:58:24.440Z,16.638184
2019-05-21T13:01:54.404Z,16.456909
2019-05-21T13:05:24.386Z,16.426697
2019-05-21T13:08:54.365Z,16.567688
2019-05-21T13:12:24.318Z,16.567688
2019-05-21T13:15:54.288Z,16.71875
2019-05-21T13:19:24.297Z,16.8396
2019-05-21T13:22:55.235Z,16.950378
2019-05-21T13:26:25.238Z,17.020874
2019-05-21T13:29:55.205Z,17.071228
2019-05-21T13:33:25.268Z,17.312927
2019-05-21T13:36:55.227Z,17.59491
2019-05-21T13:40:26.195Z,17.756042
2019-05-21T13:43:56.185Z,17.685547
2019-05-21T13:47:26.146Z,17.675476
2019-05-21T13:50:56.091Z,17.655334
2019-05-21T13:54:27.080Z,17.645264
2019-05-21T13:57:57.104Z,17.675476
2019-05-21T14:01:39.832Z,17.645264
2019-05-21T14:05:03.142Z,17.705688
2019-05-21T14:08:32.840Z,17.625122
2019-05-21T14:12:02.848Z,17.705688
2019-05-21T14:15:32.805Z,17.715759
2019-05-21T14:19:02.750Z,17.675476
2019-05-21T14:22:36.467Z,17.675476
2019-05-21T14:26:05.217Z,17.625122
2019-05-21T14:29:35.187Z,17.544556
2019-05-21T14:33:06.165Z,17.59491
2019-05-21T14:36:36.143Z,17.59491
2019-05-21T14:40:06.104Z,17.685547
2019-05-21T14:43:36.114Z,17.655334
2019-05-21T14:47:06.093Z,17.685547
2019-05-21T14:50:36.108Z,17.675476
2019-05-21T14:54:06.114Z,17.655334
2019-05-21T14:57:39.157Z,17.675476
2019-05-21T15:01:09.870Z,17.705688
2019-05-21T15:04:40.053Z,17.685547
2019-05-21T15:08:10.727Z,17.615051
2019-05-21T15:11:40.721Z,17.544556
2019-05-21T15:15:10.672Z,17.494202
2019-05-21T15:18:40.643Z,17.504272
2019-05-21T15:22:10.612Z,17.524414
2019-05-21T15:25:40.563Z,17.47406
2019-05-21T15:29:10.529Z,17.524414
2019-05-21T15:32:40.496Z,17.494202
2019-05-21T15:36:10.492Z,17.504272
2019-05-21T15:39:40.616Z,17.544556
2019-05-21T15:43:10.860Z,17.59491
2019-05-21T15:46:48.097Z,17.59491
2019-05-21T15:50:15.213Z,17.625122
2019-05-21T15:53:45.436Z,17.645264
2019-05-21T15:57:15.521Z,17.685547
2019-05-21T16:00:46.135Z,17.756042
2019-05-21T16:04:17.041Z,17.72583
2019-05-21T16:07:46.357Z,17.715759
2019-05-21T16:11:27.771Z,17.655334
2019-05-21T16:14:50.635Z,17.655334
2019-05-21T16:18:20.684Z,17.685547
2019-05-21T16:21:52.103Z,17.675476
2019-05-21T16:25:22.360Z,17.685547
2019-05-21T16:28:50.400Z,17.675476
2019-05-21T16:32:20.497Z,17.705688
2019-05-21T16:35:50.955Z,17.705688
2019-05-21T16:39:21.379Z,17.675476
2019-05-21T16:42:51.562Z,17.615051
2019-05-21T16:46:21.574Z,17.524414
2019-05-21T16:49:51.701Z,17.494202
2019-05-21T16:53:22.126Z,17.463989
2019-05-21T16:56:52.724Z,17.413635
2019-05-21T17:00:23.006Z,17.322998
2019-05-21T17:03:59.738Z,17.22229
2019-05-21T17:07:27.018Z,17.202148
2019-05-21T17:10:57.275Z,17.10144
2019-05-21T17:14:27.269Z,17.041016
2019-05-21T17:17:57.333Z,17.020874
2019-05-21T17:21:28.382Z,16.97052
2019-05-21T17:24:58.421Z,16.950378
2019-05-21T17:28:28.514Z,16.97052
2019-05-21T17:31:58.555Z,16.950378
2019-05-21T17:35:28.600Z,16.759033
2019-05-21T17:38:58.623Z,16.668396
2019-05-21T17:42:28.642Z,16.618042
2019-05-21T17:45:59.692Z,16.607971
2019-05-21T17:49:29.721Z,16.58783
2019-05-21T17:52:59.819Z,16.607971
2019-05-21T17:56:30.827Z,16.58783
2019-05-21T18:00:00.869Z,16.517334
2019-05-21T18:03:30.947Z,16.456909
2019-05-21T18:07:00.992Z,16.456909
